Utinga, Brazil
Current Conditions -  °F | °C
As of 1:00 AM on Sunday 26 Oct 2014 (Local Time) from SBPL Reporting Station
Clear Clear  
Wind Chill: 81°   Ceiling: Unl
Heat Index: 82°   Visibility: 6mi
Dew Point: 63°   Wind: 7mph
Humidity: 54%   Direction: 120°ESE
Pressure: 29.91"   Gusts: NA
Location:  12.08°S, 41.09°W
Report Text: SBPL 260400Z 12006KT CAVOK 27/17 Q1013
Loading
Personal Weather Stations






























Interactive Weather Map
Tropical Storm Tracking
New forecast layout! Learn more

10-Day Weather Forecast

Advertisements
Track Severe Weather on mobile